Time;durP1;ratioP1;P1;durP2;ratioP2;P2;SDS_P1;SDS_P2;PMS_P1;PMS_P2;Temp;Humidity;BMP_temperature;BMP_pressure;BME280_temperature;BME280_humidity;BME280_pressure;Samples;Min_cycle;Max_cycle;Signal;HPM_P1;HPM_P2
2023/06/03 00:01:36;;;;;;;6.15;2.83;;;;;;;15.70;74.63;100937.72;8290994;28;20045;-61
2023/06/03 00:05:36;;;;;;;7.28;3.03;;;;;;;15.70;74.43;100942.28;8290133;28;20072;-61
2023/06/03 00:09:37;;;;;;;9.20;3.63;;;;;;;15.65;74.98;100931.06;8291157;28;20042;-62
2023/06/03 00:13:38;;;;;;;13.48;3.45;;;;;;;15.57;75.03;100934.59;8289972;28;20091;-61
2023/06/03 00:17:39;;;;;;;9.07;3.47;;;;;;;15.51;75.34;100940.69;8290977;28;20091;-61
2023/06/03 00:21:41;;;;;;;7.28;3.22;;;;;;;15.53;75.47;100946.81;8289639;28;20070;-62
2023/06/03 00:25:41;;;;;;;9.43;3.30;;;;;;;15.45;75.90;100941.31;8290159;28;20045;-61
2023/06/03 00:29:42;;;;;;;8.05;3.38;;;;;;;15.42;75.86;100941.66;8290270;28;20087;-61
2023/06/03 00:33:43;;;;;;;6.78;3.47;;;;;;;15.25;76.64;100934.34;8288393;28;20447;-61
2023/06/03 00:37:43;;;;;;;9.93;3.80;;;;;;;15.04;77.87;100924.84;8288065;28;20037;-61
2023/06/03 00:41:44;;;;;;;9.98;3.78;;;;;;;14.87;78.80;100928.44;8289657;28;20379;-59
2023/06/03 00:45:45;;;;;;;6.63;3.15;;;;;;;14.67;79.74;100938.66;8289734;28;20129;-59
2023/06/03 00:49:45;;;;;;;13.23;3.50;;;;;;;14.62;79.97;100929.25;8289790;28;20408;-59
2023/06/03 00:53:46;;;;;;;6.88;3.70;;;;;;;14.45;80.69;100939.13;8289707;28;20404;-60
2023/06/03 00:57:47;;;;;;;9.90;4.03;;;;;;;14.51;80.79;100932.19;8288099;28;20041;-59
2023/06/03 01:01:48;;;;;;;9.50;4.07;;;;;;;14.40;81.11;100935.16;8288899;28;20521;-59
2023/06/03 01:06:14;;;;;;;10.07;3.75;;;;;;;14.32;81.31;100933.22;8288888;28;20041;-59
2023/06/03 01:10:40;;;;;;;12.73;4.40;;;;;;;14.28;81.52;100931.84;8286817;28;20519;-59
2023/06/03 01:14:51;;;;;;;15.48;4.57;;;;;;;14.28;81.48;100923.66;8274983;28;20064;-59
2023/06/03 01:18:51;;;;;;;12.07;4.50;;;;;;;14.22;81.97;100931.53;8288442;28;20038;-59
2023/06/03 01:22:57;;;;;;;11.93;4.55;;;;;;;14.28;81.82;100920.94;8288574;28;20037;-59
2023/06/03 01:26:58;;;;;;;7.60;3.80;;;;;;;14.24;82.22;100921.41;8286964;28;20037;-59
2023/06/03 01:31:00;;;;;;;10.82;4.30;;;;;;;14.21;82.20;100924.41;8286857;28;20091;-59
2023/06/03 01:35:01;;;;;;;10.93;4.15;;;;;;;14.05;82.62;100925.06;8288537;28;20234;-59
2023/06/03 01:39:03;;;;;;;10.32;4.07;;;;;;;14.00;83.00;100916.50;8288927;28;20037;-59
2023/06/03 01:43:04;;;;;;;10.43;4.05;;;;;;;13.65;84.14;100921.88;8288752;28;20077;-59
2023/06/03 01:47:06;;;;;;;10.38;5.07;;;;;;;13.57;85.28;100927.19;8288441;28;20419;-58
2023/06/03 01:51:06;;;;;;;11.10;5.20;;;;;;;13.19;87.53;100935.47;8287967;28;20088;-59
2023/06/03 01:55:07;;;;;;;11.95;5.15;;;;;;;13.04;88.55;100928.81;8287042;28;20103;-59
2023/06/03 01:59:08;;;;;;;9.18;4.43;;;;;;;12.90;89.43;100935.50;8287671;28;20042;-58
2023/06/03 02:03:08;;;;;;;9.60;4.70;;;;;;;12.54;91.06;100938.13;8288107;28;20108;-58
2023/06/03 02:07:10;;;;;;;13.30;5.00;;;;;;;12.47;91.92;100931.56;8286090;28;20130;-59
2023/06/03 02:11:11;;;;;;;11.82;4.55;;;;;;;12.53;91.92;100931.00;8286699;28;20034;-59
2023/06/03 02:15:12;;;;;;;9.88;4.82;;;;;;;12.59;90.81;100933.13;8287306;28;20034;-63
2023/06/03 02:19:16;;;;;;;7.47;4.60;;;;;;;12.46;90.57;100935.25;8288161;28;20048;-63
2023/06/03 02:23:16;;;;;;;10.70;5.10;;;;;;;12.30;92.50;100924.13;8288380;28;20108;-62
2023/06/03 02:27:19;;;;;;;15.18;5.53;;;;;;;12.50;90.76;100931.28;8294598;28;20045;-63
2023/06/03 02:31:20;;;;;;;8.80;4.80;;;;;;;12.21;90.88;100920.41;8293666;28;20038;-63
2023/06/03 02:35:20;;;;;;;12.80;5.68;;;;;;;12.20;93.01;100924.09;8294034;28;20045;-63
2023/06/03 02:39:21;;;;;;;10.10;4.85;;;;;;;11.83;94.88;100934.72;8294500;28;20045;-63
2023/06/03 02:43:22;;;;;;;7.68;4.85;;;;;;;11.74;94.88;100935.56;8293705;28;20037;-63
2023/06/03 02:47:22;;;;;;;8.38;4.50;;;;;;;11.77;94.49;100938.00;8294570;28;20042;-58
2023/06/03 02:51:23;;;;;;;11.80;5.22;;;;;;;11.70;96.53;100936.84;8294001;28;20113;-58
2023/06/03 02:55:27;;;;;;;14.52;5.20;;;;;;;12.00;95.71;100935.06;8293749;28;20491;-59
2023/06/03 02:59:27;;;;;;;7.80;4.80;;;;;;;11.97;95.18;100943.47;8293875;28;20141;-58
2023/06/03 03:03:28;;;;;;;7.38;4.55;;;;;;;11.79;94.04;100941.44;8293445;28;20084;-58
2023/06/03 03:07:32;;;;;;;11.75;5.05;;;;;;;11.69;94.14;100945.94;8297934;28;20133;-59
2023/06/03 03:11:34;;;;;;;8.98;5.38;;;;;;;12.13;93.99;100943.81;8294873;28;20041;-58
2023/06/03 03:15:35;;;;;;;11.98;4.57;;;;;;;12.72;90.53;100944.53;8292081;28;20250;-59
2023/06/03 03:19:36;;;;;;;11.27;4.90;;;;;;;12.80;89.18;100945.53;8292566;28;20468;-58
2023/06/03 03:23:37;;;;;;;8.55;4.65;;;;;;;12.83;89.31;100944.38;8290595;28;20400;-58
2023/06/03 03:27:37;;;;;;;11.50;3.63;;;;;;;13.14;87.84;100954.06;8292141;28;20065;-58
2023/06/03 03:31:40;;;;;;;12.80;4.57;;;;;;;13.24;86.54;100952.19;8293221;28;20551;-58
2023/06/03 03:35:43;;;;;;;9.82;4.00;;;;;;;13.37;85.64;100958.16;8291826;28;20038;-58
2023/06/03 03:39:44;;;;;;;8.57;3.90;;;;;;;13.38;85.43;100962.56;8292912;28;20042;-58
2023/06/03 03:43:44;;;;;;;11.38;4.05;;;;;;;13.37;85.25;100960.88;8292763;28;20121;-58
2023/06/03 03:48:01;;;;;;;7.40;3.92;;;;;;;13.40;84.98;100955.16;8292670;28;20068;-58
2023/06/03 03:52:04;;;;;;;10.18;3.88;;;;;;;13.46;84.38;100960.00;8291502;28;20033;-58
2023/06/03 03:56:05;;;;;;;8.90;4.00;;;;;;;13.34;84.82;100966.59;8291662;28;20527;-58
2023/06/03 04:00:14;;;;;;;10.52;4.20;;;;;;;12.59;89.38;100968.38;8292388;28;20041;-58
2023/06/03 04:04:43;;;;;;;6.05;3.90;;;;;;;12.57;89.69;100962.25;8349999;27;20400;-59
2023/06/03 04:08:45;;;;;;;10.77;4.10;;;;;;;12.76;88.27;100959.53;8349497;28;20049;-59
2023/06/03 04:12:47;;;;;;;11.32;4.30;;;;;;;12.38;90.96;100957.66;8349671;28;20041;-60
2023/06/03 04:16:58;;;;;;;13.55;4.32;;;;;;;12.70;91.46;100960.09;8365717;28;20124;-59
2023/06/03 04:21:03;;;;;;;8.23;4.93;;;;;;;13.03;89.12;100962.38;8351012;28;20120;-59
2023/06/03 04:25:08;;;;;;;5.53;4.03;;;;;;;13.15;88.35;100956.63;8350448;28;20499;-59
2023/06/03 04:29:29;;;;;;;10.40;4.53;;;;;;;13.50;86.17;100961.38;8351420;28;20091;-61
2023/06/03 04:33:30;;;;;;;11.35;4.50;;;;;;;13.78;83.20;100961.28;8350869;28;20449;-63
2023/06/03 04:37:31;;;;;;;12.00;3.35;;;;;;;14.07;81.30;100966.56;8350482;28;20122;-61
2023/06/03 04:41:32;;;;;;;13.45;4.15;;;;;;;14.33;80.02;100967.56;8350559;28;20041;-61
2023/06/03 04:45:34;;;;;;;7.75;3.85;;;;;;;14.53;79.26;100958.25;8350901;28;20038;-61
2023/06/03 04:49:36;;;;;;;6.85;3.10;;;;;;;14.81;77.62;100962.59;8350949;28;20052;-61
2023/06/03 04:53:36;;;;;;;7.90;2.95;;;;;;;15.03;77.02;100966.69;8350088;28;20037;-61
2023/06/03 04:57:38;;;;;;;6.25;3.17;;;;;;;15.28;75.18;100971.34;8350228;28;20415;-61
2023/06/03 05:01:40;;;;;;;4.93;2.88;;;;;;;15.44;74.60;100966.00;8339944;28;20115;-62
2023/06/03 05:05:41;;;;;;;6.70;1.85;;;;;;;15.60;72.67;100966.97;8329145;28;20125;-62
2023/06/03 05:09:42;;;;;;;5.70;2.83;;;;;;;15.79;71.96;100968.59;8338667;28;20048;-62
2023/06/03 05:13:44;;;;;;;3.45;2.25;;;;;;;15.96;71.29;100964.06;8331702;28;20044;-60
2023/06/03 05:17:45;;;;;;;6.97;2.30;;;;;;;16.06;69.80;100968.38;8321098;28;20037;-60
2023/06/03 05:21:45;;;;;;;5.55;1.95;;;;;;;16.18;67.99;100974.38;8318840;28;20072;-60
2023/06/03 05:25:47;;;;;;;6.60;1.98;;;;;;;16.31;67.70;100972.06;8295854;28;20596;-60
2023/06/03 05:29:48;;;;;;;10.55;2.22;;;;;;;16.58;67.43;100969.03;8293516;28;20049;-60
2023/06/03 05:33:49;;;;;;;6.28;1.83;;;;;;;16.76;64.53;100967.03;8320549;28;20042;-60
2023/06/03 05:37:52;;;;;;;5.53;2.13;;;;;;;16.97;64.03;100970.97;8326111;28;20041;-60
2023/06/03 05:41:53;;;;;;;6.53;1.65;;;;;;;17.19;62.93;100974.88;8323675;28;20045;-60
2023/06/03 05:45:53;;;;;;;5.40;2.20;;;;;;;17.22;60.07;100969.94;8296636;28;20576;-58
2023/06/03 05:49:55;;;;;;;5.47;1.85;;;;;;;17.29;61.00;100970.09;8294462;28;20034;-60
2023/06/03 05:53:56;;;;;;;5.13;1.50;;;;;;;17.44;59.20;100969.25;8321990;28;20430;-59
2023/06/03 05:57:59;;;;;;;7.68;1.90;;;;;;;17.56;58.83;100967.00;8326647;28;20045;-58
2023/06/03 06:02:00;;;;;;;5.53;1.70;;;;;;;17.67;58.86;100969.38;8320910;28;20423;-59
2023/06/03 06:06:01;;;;;;;3.45;1.52;;;;;;;17.79;58.29;100970.72;8323650;28;20514;-62
2023/06/03 06:10:02;;;;;;;4.05;1.60;;;;;;;17.88;57.74;100964.19;8325164;28;20049;-62
2023/06/03 06:14:04;;;;;;;5.82;1.90;;;;;;;18.02;57.54;100970.81;8306338;28;20061;-62
2023/06/03 06:18:04;;;;;;;5.72;1.88;;;;;;;18.37;55.48;100968.44;8292898;28;20034;-62
2023/06/03 06:22:05;;;;;;;5.90;1.65;;;;;;;18.25;54.93;100975.31;8305955;28;20096;-62
2023/06/03 06:26:06;;;;;;;4.95;1.20;;;;;;;18.40;54.91;100973.53;8322354;28;20033;-62
2023/06/03 06:30:08;;;;;;;5.35;1.52;;;;;;;18.38;55.05;100975.59;8314602;28;20057;-62
2023/06/03 06:34:10;;;;;;;4.22;1.85;;;;;;;18.48;54.08;100976.22;8311781;28;20044;-62
2023/06/03 06:38:13;;;;;;;5.15;1.20;;;;;;;18.42;53.76;100965.97;8300143;28;20048;-62
2023/06/03 06:42:36;;;;;;;4.50;1.45;;;;;;;18.34;53.57;100974.22;8302724;28;20037;-62
2023/06/03 06:46:54;;;;;;;4.07;1.23;;;;;;;18.37;52.92;100967.56;8320759;28;20038;-62
2023/06/03 06:50:56;;;;;;;7.72;1.45;;;;;;;18.59;52.43;100970.34;8344281;28;20132;-62
2023/06/03 06:55:01;;;;;;;5.78;1.25;;;;;;;18.78;52.75;100971.75;8315295;28;20042;-62
2023/06/03 06:59:03;;;;;;;8.98;1.50;;;;;;;19.06;53.15;100973.75;8286776;28;20042;-63
2023/06/03 07:03:07;;;;;;;3.28;1.20;;;;;;;19.11;51.64;100976.78;8287661;28;20042;-62
2023/06/03 07:07:08;;;;;;;3.50;1.15;;;;;;;19.29;51.47;100971.88;8281500;28;20083;-62
2023/06/03 07:11:08;;;;;;;9.90;1.38;;;;;;;19.43;51.79;100979.25;8293675;28;20558;-62
2023/06/03 07:15:14;;;;;;;4.20;1.40;;;;;;;19.76;52.49;100967.97;8322810;28;20447;-62
2023/06/03 07:19:15;;;;;;;4.95;1.42;;;;;;;19.77;52.11;100966.91;8320491;28;20526;-62
2023/06/03 07:23:24;;;;;;;2.85;1.10;;;;;;;19.50;51.94;100968.41;8293239;28;20056;-62
2023/06/03 07:27:28;;;;;;;2.80;1.25;;;;;;;19.62;53.65;100966.03;8289805;28;20408;-62
2023/06/03 07:31:31;;;;;;;5.43;1.58;;;;;;;19.87;52.31;100961.97;8325149;28;20029;-62
2023/06/03 07:35:34;;;;;;;3.40;1.30;;;;;;;19.76;51.86;100962.47;8305856;28;20037;-62
2023/06/03 07:39:35;;;;;;;7.43;1.60;;;;;;;19.83;51.10;100968.91;8305675;28;20159;-62
2023/06/03 07:43:39;;;;;;;7.40;1.27;;;;;;;20.11;50.96;100961.69;8305751;28;20038;-60
2023/06/03 07:47:40;;;;;;;7.35;1.55;;;;;;;20.20;52.24;100966.06;8290526;28;20034;-61
2023/06/03 07:51:45;;;;;;;3.22;1.17;;;;;;;20.29;51.30;100973.16;8306589;28;20045;-61
2023/06/03 07:55:45;;;;;;;;;;;;;;;20.34;50.88;100976.19;8316723;28;20056;-61
2023/06/03 07:59:52;;;;;;;3.67;2.13;;;;;;;20.39;50.69;100965.44;8298179;28;19965;-61
2023/06/03 08:03:53;;;;;;;3.17;1.25;;;;;;;20.77;50.26;100966.97;8305090;28;20057;-61
2023/06/03 08:07:53;;;;;;;5.63;0.98;;;;;;;20.86;49.07;100966.63;8348967;28;20040;-61
2023/06/03 08:11:55;;;;;;;4.03;1.50;;;;;;;20.72;49.27;100969.44;8319323;28;20076;-61
2023/06/03 08:15:56;;;;;;;3.08;1.10;;;;;;;21.03;49.78;100967.25;8306017;28;20055;-61
2023/06/03 08:19:56;;;;;;;6.65;1.55;;;;;;;21.16;49.87;100959.09;8352231;28;20556;-61
2023/06/03 08:23:57;;;;;;;2.33;1.33;;;;;;;21.53;48.96;100963.44;8319613;28;20050;-61
2023/06/03 08:27:57;;;;;;;9.15;1.30;;;;;;;21.38;48.16;100961.63;8318191;28;20526;-61
2023/06/03 08:31:58;;;;;;;4.80;1.08;;;;;;;21.46;49.13;100957.06;8319889;28;20555;-61
2023/06/03 08:35:59;;;;;;;3.88;1.38;;;;;;;21.60;48.72;100962.44;8305555;28;20479;-61
2023/06/03 08:40:01;;;;;;;2.50;1.27;;;;;;;21.66;48.31;100950.63;8286822;28;20041;-61
2023/06/03 08:44:07;;;;;;;4.20;1.20;;;;;;;21.69;48.39;100950.22;8310226;28;20041;-61
2023/06/03 08:52:37;;;;;;;3.80;1.38;;;;;;;22.21;48.35;100944.19;8377430;27;20405;-62
2023/06/03 08:56:42;;;;;;;4.80;1.20;;;;;;;22.19;48.67;100941.63;8366380;28;20041;-61
2023/06/03 09:00:44;;;;;;;4.47;1.23;;;;;;;22.40;48.22;100949.78;8362184;28;20053;-61
2023/06/03 09:04:49;;;;;;;3.85;1.33;;;;;;;22.58;48.17;100947.31;8353430;28;20124;-61
2023/06/03 09:08:51;;;;;;;4.30;1.63;;;;;;;22.53;48.84;100944.31;8375358;28;20047;-61
2023/06/03 09:12:56;;;;;;;3.38;1.60;;;;;;;22.66;47.66;100949.03;8363132;28;20080;-62
2023/06/03 09:16:58;;;;;;;4.47;1.45;;;;;;;22.84;47.41;100939.09;8372132;28;20441;-61
2023/06/03 09:20:59;;;;;;;4.50;1.92;;;;;;;22.97;47.55;100946.56;8360136;28;20102;-62
2023/06/03 09:24:59;;;;;;;5.05;1.63;;;;;;;23.04;48.49;100953.78;8351867;28;20041;-61
2023/06/03 09:29:00;;;;;;;4.55;2.05;;;;;;;23.33;47.50;100943.41;8403615;28;20040;-61
2023/06/03 09:33:01;;;;;;;3.45;1.55;;;;;;;22.99;47.04;100939.75;8377797;28;20048;-62
2023/06/03 09:37:09;;;;;;;6.80;1.80;;;;;;;23.34;48.43;100942.34;8376803;28;20055;-61
2023/06/03 09:41:19;;;;;;;3.47;1.23;;;;;;;23.64;47.42;100940.81;8376601;28;20166;-60
2023/06/03 09:45:35;;;;;;;3.95;1.73;;;;;;;23.60;46.87;100947.84;8344335;28;20067;-59
2023/06/03 09:49:36;;;;;;;2.72;1.70;;;;;;;23.48;46.56;100946.81;8343981;28;20071;-59
2023/06/03 09:53:37;;;;;;;6.93;1.67;;;;;;;23.96;45.99;100931.63;8375572;28;20049;-59
2023/06/03 09:57:38;;;;;;;5.55;1.20;;;;;;;24.65;45.86;100922.44;8396514;28;20037;-59
2023/06/03 10:01:38;;;;;;;2.72;1.30;;;;;;;26.13;43.35;100934.31;8388163;28;20067;-59
2023/06/03 10:05:41;;;;;;;4.88;1.73;;;;;;;26.61;42.01;100937.97;8354978;28;20057;-59
2023/06/03 10:09:45;;;;;;;2.65;1.80;;;;;;;27.36;41.05;100921.69;8354595;28;20079;-59
2023/06/03 10:13:45;;;;;;;2.30;1.50;;;;;;;28.39;39.82;100926.31;8354087;28;20189;-59
2023/06/03 10:17:46;;;;;;;3.90;2.13;;;;;;;28.59;39.87;100923.97;8335877;28;20518;-60
2023/06/03 10:21:47;;;;;;;3.17;1.60;;;;;;;28.19;39.59;100925.88;8351699;28;20051;-59
2023/06/03 10:25:52;;;;;;;3.78;1.98;;;;;;;28.50;38.69;100912.41;8345404;28;20045;-60
2023/06/03 10:29:53;;;;;;;3.17;1.90;;;;;;;28.28;38.88;100910.50;8352462;28;20503;-59
2023/06/03 10:33:54;;;;;;;5.03;1.42;;;;;;;28.89;38.27;100916.19;8353577;28;20048;-59
2023/06/03 10:38:00;;;;;;;4.20;1.70;;;;;;;29.26;39.59;100917.44;8352682;28;20067;-59
2023/06/03 10:42:03;;;;;;;8.70;2.17;;;;;;;29.55;37.10;100921.00;8351793;28;20301;-59
2023/06/03 10:46:04;;;;;;;2.73;1.57;;;;;;;29.38;37.82;100915.44;8352854;28;20123;-59
2023/06/03 10:50:19;;;;;;;5.88;2.05;;;;;;;29.93;38.59;100918.25;8351197;28;20037;-59
2023/06/03 10:54:31;;;;;;;5.20;1.95;;;;;;;29.69;36.98;100917.63;8351547;28;20415;-59
2023/06/03 10:58:32;;;;;;;5.27;1.67;;;;;;;29.61;36.69;100918.00;8332257;28;20036;-59
2023/06/03 11:03:08;;;;;;;3.45;2.13;;;;;;;29.66;37.33;100918.13;8358295;28;20053;-60
2023/06/03 11:11:48;;;;;;;4.60;1.88;;;;;;;29.64;37.50;100903.59;8391700;27;20382;-59
2023/06/03 11:16:04;;;;;;;8.10;1.88;;;;;;;29.83;37.60;100915.31;8408990;28;20060;-59
2023/06/03 11:20:05;;;;;;;5.00;1.60;;;;;;;30.49;36.32;100892.75;8411898;28;20044;-59
2023/06/03 11:24:05;;;;;;;3.15;1.67;;;;;;;30.03;35.77;100901.63;8442388;28;20062;-59
2023/06/03 11:28:27;;;;;;;5.63;1.90;;;;;;;29.73;35.62;100912.38;8410725;28;20165;-59
2023/06/03 11:32:36;;;;;;;3.85;1.95;;;;;;;30.36;36.18;100921.94;8395455;27;20294;-59
2023/06/03 11:36:53;;;;;;;4.78;1.65;;;;;;;30.93;35.92;100913.09;8393576;27;20047;-60
2023/06/03 11:40:54;;;;;;;6.57;1.58;;;;;;;30.52;35.41;100922.13;8394294;27;20127;-60
2023/06/03 11:45:25;;;;;;;3.95;1.52;;;;;;;30.87;35.66;100915.00;8392721;27;20036;-60
2023/06/03 11:49:25;;;;;;;2.83;2.08;;;;;;;31.51;34.40;100897.16;8392693;27;20098;-59
2023/06/03 11:53:30;;;;;;;4.43;1.88;;;;;;;31.47;34.32;100900.75;8393492;27;20128;-59
2023/06/03 11:57:30;;;;;;;4.18;2.00;;;;;;;31.06;35.15;100890.31;8392089;27;20041;-60
2023/06/03 12:01:31;;;;;;;4.22;1.75;;;;;;;30.00;35.28;100894.63;8392887;27;20037;-59
2023/06/03 12:05:31;;;;;;;3.00;1.65;;;;;;;29.01;35.80;100866.84;8388336;27;20486;-59
2023/06/03 12:09:31;;;;;;;3.88;1.98;;;;;;;27.20;38.29;100880.72;8392974;27;20094;-59
2023/06/03 12:13:41;;;;;;;2.97;1.80;;;;;;;26.13;39.20;100878.06;8392235;27;20148;-59
2023/06/03 12:17:41;;;;;;;5.45;1.60;;;;;;;25.50;40.49;100877.47;8392109;27;20680;-59
2023/06/03 12:21:42;;;;;;;3.38;1.70;;;;;;;25.20;41.50;100876.47;8369645;28;20040;-59
2023/06/03 12:25:42;;;;;;;5.68;1.95;;;;;;;24.82;41.10;100865.50;8370809;28;20075;-59
2023/06/03 12:29:47;;;;;;;3.78;1.90;;;;;;;24.69;42.21;100867.50;8371003;28;20055;-59
2023/06/03 12:33:48;;;;;;;5.50;2.10;;;;;;;24.88;41.50;100860.97;8364979;28;20746;-60
2023/06/03 12:38:02;;;;;;;3.08;1.48;;;;;;;24.92;42.51;100867.78;8370517;28;20040;-60
2023/06/03 12:42:03;;;;;;;4.47;2.05;;;;;;;24.83;41.50;100866.34;8362194;28;20037;-59
2023/06/03 12:46:19;;;;;;;3.13;1.90;;;;;;;24.60;41.85;100855.84;8370393;28;20044;-59
2023/06/03 12:50:21;;;;;;;5.88;1.70;;;;;;;24.69;41.55;100845.38;8401651;28;20044;-59
2023/06/03 12:54:21;;;;;;;4.32;2.05;;;;;;;25.21;42.72;100849.59;8370575;28;20052;-63
2023/06/03 12:58:22;;;;;;;4.72;1.55;;;;;;;24.96;41.74;100846.88;8370859;28;20634;-64
2023/06/03 13:02:22;;;;;;;5.05;1.58;;;;;;;24.97;42.61;100843.03;8369213;28;20033;-63
2023/06/03 13:06:24;;;;;;;5.82;1.60;;;;;;;25.37;42.01;100849.91;8370232;28;20132;-64
2023/06/03 13:10:24;;;;;;;7.80;1.80;;;;;;;25.09;42.22;100852.28;8354301;28;20041;-64
2023/06/03 13:14:25;;;;;;;3.47;1.77;;;;;;;24.50;41.14;100840.81;8363463;28;20189;-64
2023/06/03 13:18:25;;;;;;;4.73;1.63;;;;;;;24.93;42.19;100831.56;8378246;28;20511;-64
2023/06/03 13:22:26;;;;;;;3.20;1.80;;;;;;;25.11;42.45;100828.00;8382024;28;20361;-64
2023/06/03 13:26:30;;;;;;;5.22;1.40;;;;;;;25.10;42.59;100831.84;8382080;28;20040;-64
2023/06/03 13:30:30;;;;;;;2.77;1.30;;;;;;;25.25;43.57;100835.09;8385277;28;20032;-64
2023/06/03 13:34:31;;;;;;;3.92;1.40;;;;;;;25.27;43.46;100844.03;8381117;28;20032;-64
2023/06/03 13:38:31;;;;;;;4.28;1.42;;;;;;;25.10;43.78;100837.38;8359406;28;20052;-64
2023/06/03 13:42:32;;;;;;;5.43;1.38;;;;;;;25.10;45.00;100829.09;8346670;28;20124;-64
2023/06/03 13:46:32;;;;;;;5.88;1.30;;;;;;;25.20;44.81;100826.63;8368375;28;20521;-64
2023/06/03 13:50:33;;;;;;;7.20;1.63;;;;;;;25.22;45.32;100834.72;8369586;28;20037;-64
2023/06/03 13:54:33;;;;;;;4.82;1.35;;;;;;;25.08;45.34;100816.53;8369788;28;20094;-63
2023/06/03 13:58:34;;;;;;;4.50;1.53;;;;;;;25.14;43.80;100827.53;8368379;28;20541;-63
2023/06/03 14:02:35;;;;;;;6.93;1.67;;;;;;;25.02;42.80;100815.53;8368967;28;20287;-64
2023/06/03 14:06:36;;;;;;;3.85;1.10;;;;;;;24.96;44.24;100819.19;8371580;28;20033;-63
2023/06/03 14:10:37;;;;;;;6.20;1.30;;;;;;;24.71;43.77;100821.97;8370053;28;20044;-64
2023/06/03 14:14:37;;;;;;;3.60;1.50;;;;;;;24.70;43.98;100813.91;8367680;28;20041;-64
2023/06/03 14:18:37;;;;;;;6.83;1.60;;;;;;;24.68;43.46;100805.84;8370026;28;20087;-63
2023/06/03 14:22:38;;;;;;;4.85;1.55;;;;;;;24.94;43.85;100799.19;8392691;28;20267;-62
2023/06/03 14:26:38;;;;;;;3.10;1.30;;;;;;;25.00;43.48;100801.06;8370546;28;20284;-62
2023/06/03 14:30:39;;;;;;;3.75;1.10;;;;;;;24.68;43.71;100789.25;8369294;28;20037;-62
2023/06/03 14:34:39;;;;;;;5.20;1.30;;;;;;;24.78;43.87;100805.31;8369928;28;20059;-62
2023/06/03 14:38:40;;;;;;;4.32;1.27;;;;;;;24.73;44.40;100792.16;8361237;28;20044;-62
2023/06/03 14:42:40;;;;;;;6.10;1.50;;;;;;;24.86;43.38;100791.22;8369346;28;20045;-62
2023/06/03 14:46:41;;;;;;;4.50;1.55;;;;;;;24.96;43.86;100791.53;8370585;28;20039;-61
2023/06/03 14:50:41;;;;;;;5.40;1.35;;;;;;;24.87;43.75;100781.81;8368983;28;20492;-62
2023/06/03 14:54:42;;;;;;;2.42;1.10;;;;;;;24.93;42.75;100775.38;8369692;28;20418;-61
2023/06/03 14:58:42;;;;;;;2.13;0.90;;;;;;;24.92;43.78;100779.22;8358385;28;20056;-61
2023/06/03 15:02:43;;;;;;;7.80;1.45;;;;;;;24.66;42.47;100779.47;8368044;28;20040;-62
2023/06/03 15:06:45;;;;;;;2.80;1.27;;;;;;;24.73;43.85;100775.56;8367431;28;20061;-61
2023/06/03 15:10:46;;;;;;;3.67;1.30;;;;;;;24.54;44.01;100779.31;8367703;28;20052;-62
2023/06/03 15:14:47;;;;;;;3.47;1.15;;;;;;;24.41;43.53;100778.56;8366342;28;20032;-61
2023/06/03 15:18:47;;;;;;;3.25;1.52;;;;;;;24.77;43.90;100776.78;8358708;28;20510;-62
2023/06/03 15:22:48;;;;;;;2.97;1.30;;;;;;;24.75;43.15;100772.56;8366884;28;20036;-61
2023/06/03 15:26:48;;;;;;;3.22;1.40;;;;;;;24.44;43.32;100780.88;8368256;28;20132;-62
2023/06/03 15:30:48;;;;;;;3.25;1.10;;;;;;;24.28;43.16;100775.91;8364252;28;20560;-62
2023/06/03 15:34:49;;;;;;;5.65;1.13;;;;;;;24.53;42.51;100774.00;8353778;28;20060;-62
2023/06/03 15:38:49;;;;;;;4.15;1.45;;;;;;;24.48;42.67;100769.16;8363958;28;20044;-62
2023/06/03 15:42:55;;;;;;;5.43;1.10;;;;;;;24.47;42.49;100769.38;8356916;28;20037;-62
2023/06/03 15:46:56;;;;;;;5.78;1.10;;;;;;;24.53;42.81;100774.00;8367726;28;20298;-62
2023/06/03 15:50:57;;;;;;;5.32;0.90;;;;;;;24.27;42.73;100774.19;8366228;28;20163;-62
2023/06/03 15:54:57;;;;;;;1.83;1.00;;;;;;;24.29;42.70;100777.59;8367928;28;20550;-60
2023/06/03 15:58:58;;;;;;;3.97;1.00;;;;;;;24.22;42.51;100771.25;8372009;28;20555;-59
2023/06/03 16:02:58;;;;;;;3.45;1.10;;;;;;;24.09;42.00;100774.94;8371365;28;20060;-59
2023/06/03 16:07:00;;;;;;;8.07;1.05;;;;;;;24.28;42.25;100767.63;8373177;28;20110;-62
2023/06/03 16:11:01;;;;;;;3.88;1.00;;;;;;;24.21;42.07;100769.59;8375216;28;20051;-61
2023/06/03 16:15:01;;;;;;;2.45;1.02;;;;;;;24.12;42.53;100779.19;8367790;28;20345;-62
2023/06/03 16:19:02;;;;;;;1.77;1.17;;;;;;;24.08;42.11;100775.16;8371749;28;20037;-61
2023/06/03 16:23:02;;;;;;;2.38;1.00;;;;;;;24.27;41.79;100768.66;8372389;28;20071;-62
2023/06/03 16:27:04;;;;;;;2.58;0.70;;;;;;;24.28;41.27;100776.72;8372432;28;20487;-61
2023/06/03 16:31:05;;;;;;;3.80;1.48;;;;;;;24.38;41.23;100765.19;8368800;28;20047;-61
2023/06/03 16:35:06;;;;;;;4.63;1.02;;;;;;;24.14;41.20;100766.00;8371913;28;20507;-61
2023/06/03 16:39:06;;;;;;;3.30;0.73;;;;;;;24.13;42.02;100765.16;8359880;28;20041;-62
2023/06/03 16:43:07;;;;;;;5.38;1.00;;;;;;;24.00;41.87;100767.16;8371491;28;20036;-61
2023/06/03 16:47:07;;;;;;;2.80;0.70;;;;;;;23.92;41.99;100775.66;8345903;28;20086;-62
2023/06/03 16:51:08;;;;;;;2.38;0.75;;;;;;;23.80;41.62;100767.22;8340095;28;20043;-62
2023/06/03 16:55:08;;;;;;;4.00;1.00;;;;;;;23.90;41.52;100769.50;8389118;28;20037;-61
2023/06/03 16:59:09;;;;;;;3.97;0.85;;;;;;;23.94;42.17;100770.78;8369123;28;20345;-62
2023/06/03 17:03:10;;;;;;;3.83;0.70;;;;;;;23.96;41.31;100771.41;8368196;28;20507;-61
2023/06/03 17:07:10;;;;;;;3.08;1.05;;;;;;;23.81;41.54;100774.44;8367388;28;20037;-62
2023/06/03 17:11:11;;;;;;;2.67;0.68;;;;;;;23.79;41.83;100767.44;8371297;28;20040;-61
2023/06/03 17:15:11;;;;;;;2.28;0.85;;;;;;;23.74;42.32;100757.06;8363072;28;20499;-61
2023/06/03 17:19:11;;;;;;;2.27;0.80;;;;;;;23.89;41.98;100771.44;8367555;28;20033;-61
2023/06/03 17:23:12;;;;;;;4.13;1.00;;;;;;;23.87;41.18;100784.59;8368669;28;20333;-61
2023/06/03 17:27:12;;;;;;;3.40;0.90;;;;;;;23.75;40.89;100780.00;8372521;28;20045;-61
2023/06/03 17:31:13;;;;;;;3.38;0.95;;;;;;;23.55;40.94;100774.56;8367800;28;20343;-61
2023/06/03 17:35:13;;;;;;;6.15;0.75;;;;;;;23.40;40.76;100778.66;8368272;28;20406;-61
2023/06/03 17:39:15;;;;;;;5.88;0.82;;;;;;;23.33;40.95;100778.69;8384788;28;20098;-62
2023/06/03 17:43:15;;;;;;;3.30;0.77;;;;;;;23.37;40.88;100781.84;8361834;28;20535;-61
2023/06/03 17:47:16;;;;;;;1.13;0.60;;;;;;;23.36;40.44;100785.69;8334491;28;20403;-61
2023/06/03 17:51:16;;;;;;;7.00;0.80;;;;;;;23.28;39.95;100772.09;8342449;28;20041;-61
2023/06/03 17:55:18;;;;;;;1.25;0.63;;;;;;;23.16;39.94;100772.75;8370007;28;20040;-61
2023/06/03 17:59:18;;;;;;;3.60;0.73;;;;;;;23.03;40.22;100781.03;8355479;28;20037;-61
2023/06/03 18:03:18;;;;;;;1.30;0.43;;;;;;;22.97;40.27;100765.34;8350210;28;20209;-61
2023/06/03 18:07:19;;;;;;;7.50;1.30;;;;;;;22.92;40.26;100784.47;8348145;28;20299;-61
2023/06/03 18:11:21;;;;;;;3.22;0.90;;;;;;;22.83;40.87;100780.22;8353825;28;20040;-61
2023/06/03 18:15:21;;;;;;;2.28;0.60;;;;;;;22.83;40.53;100780.22;8363258;28;20036;-61
2023/06/03 18:19:22;;;;;;;1.33;0.70;;;;;;;22.69;40.86;100786.78;8364507;28;20052;-61
2023/06/03 18:23:22;;;;;;;3.10;0.70;;;;;;;22.69;40.61;100795.06;8348735;28;20569;-61
2023/06/03 18:27:22;;;;;;;2.20;0.85;;;;;;;22.60;41.10;100796.34;8366854;28;20037;-61
2023/06/03 18:31:23;;;;;;;3.40;0.60;;;;;;;22.61;40.92;100792.53;8364616;28;20110;-61
2023/06/03 18:35:24;;;;;;;1.65;0.65;;;;;;;22.50;41.37;100790.41;8342010;28;20041;-61
2023/06/03 18:39:26;;;;;;;1.50;0.70;;;;;;;22.47;41.55;100796.31;8332457;28;20055;-61
2023/06/03 18:43:26;;;;;;;3.88;0.65;;;;;;;22.31;42.06;100793.97;8359140;28;20460;-61
2023/06/03 18:47:27;;;;;;;1.23;0.68;;;;;;;22.21;42.00;100788.03;8364342;28;20040;-61
2023/06/03 18:51:27;;;;;;;2.45;0.70;;;;;;;22.06;42.71;100792.84;8363056;28;20044;-61
2023/06/03 18:55:28;;;;;;;0.88;0.60;;;;;;;22.04;41.84;100791.34;8359147;28;20058;-61